createdAt,value
2018-11-26T00:00:10.015Z,37.50
2018-11-26T00:02:38.067Z,35.33
2018-11-26T00:05:06.203Z,34.90
2018-11-26T00:07:34.243Z,35.92
2018-11-26T00:10:13.979Z,35.68
2018-11-26T00:12:42.339Z,33.50
2018-11-26T00:15:10.352Z,34.85
2018-11-26T00:17:38.379Z,34.88
2018-11-26T00:20:06.750Z,37.00
2018-11-26T00:22:36.043Z,35.58
2018-11-26T00:25:04.082Z,36.50
2018-11-26T00:27:32.170Z,34.00
2018-11-26T00:30:00.310Z,32.95
2018-11-26T00:32:28.405Z,35.05
2018-11-26T00:34:56.720Z,33.98
2018-11-26T00:37:24.804Z,36.68
2018-11-26T00:39:52.978Z,35.83
2018-11-26T00:42:21.384Z,32.80
2018-11-26T00:44:49.390Z,35.28
2018-11-26T00:47:17.404Z,37.93
2018-11-26T00:49:45.482Z,34.00
2018-11-26T00:52:13.487Z,33.40
2018-11-26T00:54:41.494Z,27.98
2018-11-26T00:59:43.870Z,33.13
2018-11-26T01:02:12.133Z,35.20
2018-11-26T01:04:40.366Z,36.65
2018-11-26T01:07:08.371Z,28.12
2018-11-26T01:09:36.431Z,23.30
2018-11-26T01:12:04.475Z,23.38
2018-11-26T01:14:32.515Z,20.00
2018-11-26T01:17:00.521Z,26.07
2018-11-26T01:19:28.567Z,31.75
2018-11-26T01:21:56.571Z,20.90
2018-11-26T01:24:24.587Z,24.50
2018-11-26T01:26:52.865Z,25.65
2018-11-26T01:29:27.394Z,25.10
2018-11-26T01:31:55.494Z,27.42
2018-11-26T01:34:23.606Z,29.98
2018-11-26T01:36:51.649Z,27.52
2018-11-26T01:39:19.654Z,27.65
2018-11-26T01:41:47.714Z,31.05
2018-11-26T01:44:15.715Z,28.40
2018-11-26T01:46:43.722Z,30.57
2018-11-26T01:51:46.263Z,23.40
2018-11-26T01:54:14.367Z,29.42
2018-11-26T01:56:42.405Z,30.25
2018-11-26T01:59:10.849Z,28.02
2018-11-26T02:01:38.890Z,27.73
2018-11-26T02:04:06.955Z,27.93
2018-11-26T02:06:35.246Z,29.42
2018-11-26T02:09:04.242Z,28.12
2018-11-26T02:11:32.239Z,28.42
2018-11-26T02:14:00.555Z,30.25
2018-11-26T02:16:28.554Z,28.35
2018-11-26T02:18:56.551Z,28.30
2018-11-26T02:21:24.599Z,25.65
2018-11-26T02:23:52.602Z,20.37
2018-11-26T02:26:20.598Z,29.32
2018-11-26T02:28:48.760Z,32.83
2018-11-26T02:31:17.203Z,28.70
2018-11-26T02:33:45.208Z,29.87
2018-11-26T02:36:13.423Z,27.32
2018-11-26T02:38:41.429Z,27.82
2018-11-26T02:41:09.446Z,28.77
2018-11-26T02:43:37.511Z,29.55
2018-11-26T02:46:06.003Z,26.00
2018-11-26T02:48:34.002Z,28.65
2018-11-26T02:51:02.107Z,29.37
2018-11-26T02:53:30.162Z,27.58
2018-11-26T02:55:58.288Z,28.42
2018-11-26T02:58:26.377Z,29.10
2018-11-26T03:00:54.435Z,23.83
2018-11-26T03:03:22.431Z,29.07
2018-11-26T03:05:50.498Z,27.45
2018-11-26T03:08:18.614Z,28.90
2018-11-26T03:10:47.006Z,28.45
2018-11-26T03:13:15.047Z,30.10
2018-11-26T03:15:43.060Z,26.55
2018-11-26T03:18:11.146Z,26.52
2018-11-26T03:20:39.147Z,27.95
2018-11-26T03:23:08.091Z,29.80
2018-11-26T03:25:36.546Z,27.30
2018-11-26T03:28:06.258Z,29.52
2018-11-26T03:30:34.592Z,26.45
2018-11-26T03:33:02.602Z,29.52
2018-11-26T03:35:30.710Z,28.47
2018-11-26T03:37:59.106Z,26.27
2018-11-26T03:40:27.132Z,27.45
2018-11-26T03:42:55.133Z,25.48
2018-11-26T03:45:23.189Z,29.12
2018-11-26T03:47:51.245Z,29.67
2018-11-26T03:50:19.225Z,27.58
2018-11-26T03:52:47.275Z,26.02
2018-11-26T03:55:15.283Z,25.75
2018-11-26T03:57:43.332Z,22.70
2018-11-26T04:00:14.865Z,24.98
2018-11-26T04:02:43.622Z,24.52
2018-11-26T04:05:12.303Z,27.10
2018-11-26T04:07:40.620Z,25.08
2018-11-26T04:10:09.847Z,24.05
2018-11-26T04:12:37.967Z,27.02
2018-11-26T04:15:08.569Z,26.35
2018-11-26T04:17:36.639Z,25.65
2018-11-26T04:20:04.951Z,23.22
2018-11-26T04:22:32.960Z,25.37
2018-11-26T04:25:01.199Z,23.77
2018-11-26T04:27:29.370Z,23.67
2018-11-26T04:29:57.370Z,25.23
2018-11-26T04:32:25.470Z,26.07
2018-11-26T04:34:53.503Z,29.05
2018-11-26T04:37:21.502Z,29.75
2018-11-26T04:39:49.599Z,31.70
2018-11-26T04:42:17.682Z,27.47
2018-11-26T04:44:45.787Z,23.90
2018-11-26T04:47:13.787Z,26.30
2018-11-26T04:49:41.858Z,26.82
2018-11-26T04:52:09.922Z,26.30
2018-11-26T04:54:37.999Z,26.17
2018-11-26T04:57:06.255Z,22.02
2018-11-26T04:59:34.347Z,25.15
2018-11-26T05:02:02.347Z,29.72
2018-11-26T05:04:30.404Z,25.43
2018-11-26T05:06:58.406Z,25.30
2018-11-26T05:09:26.430Z,27.58
2018-11-26T05:11:54.515Z,26.47
2018-11-26T05:14:22.575Z,27.37
2018-11-26T05:16:50.579Z,28.83
2018-11-26T05:19:18.655Z,31.35
2018-11-26T05:21:46.687Z,27.05
2018-11-26T05:24:14.682Z,26.13
2018-11-26T05:26:42.786Z,28.95
2018-11-26T05:29:10.795Z,26.15
2018-11-26T05:31:38.851Z,28.15
2018-11-26T05:34:07.043Z,28.92
2018-11-26T05:36:35.043Z,27.35
2018-11-26T05:39:03.138Z,28.05
2018-11-26T05:41:31.201Z,28.42
2018-11-26T05:43:59.278Z,27.70
2018-11-26T05:46:27.362Z,28.30
2018-11-26T05:48:55.443Z,22.13
2018-11-26T05:51:23.447Z,28.20
2018-11-26T05:53:51.445Z,27.93
2018-11-26T05:56:19.590Z,27.47
2018-11-26T05:58:47.676Z,29.45
2018-11-26T06:01:15.673Z,31.45
2018-11-26T06:03:43.698Z,28.98
2018-11-26T06:06:11.753Z,30.55
2018-11-26T06:08:39.762Z,32.48
2018-11-26T06:11:07.818Z,33.30
2018-11-26T06:13:35.884Z,31.87
2018-11-26T06:16:03.960Z,33.10
2018-11-26T06:18:31.954Z,29.70
2018-11-26T06:21:00.011Z,34.00
2018-11-26T06:23:28.015Z,27.48
2018-11-26T06:25:56.023Z,33.30
2018-11-26T06:28:24.059Z,32.05
2018-11-26T06:30:52.086Z,30.57
2018-11-26T06:33:20.129Z,32.65
2018-11-26T06:35:48.143Z,32.48
2018-11-26T06:38:16.303Z,32.35
2018-11-26T06:40:44.390Z,31.73
2018-11-26T06:43:12.433Z,33.65
2018-11-26T06:45:40.571Z,34.43
2018-11-26T06:48:08.754Z,28.55
2018-11-26T06:50:36.796Z,34.88
2018-11-26T06:53:05.273Z,30.05
2018-11-26T06:55:33.274Z,30.88
2018-11-26T06:58:01.280Z,35.92
2018-11-26T07:00:29.631Z,28.45
2018-11-26T07:02:57.640Z,30.00
2018-11-26T07:05:25.845Z,32.25
2018-11-26T07:07:53.931Z,31.40
2018-11-26T07:10:21.978Z,33.45
2018-11-26T07:12:50.116Z,36.50
2018-11-26T07:15:19.512Z,31.20
2018-11-26T07:17:47.594Z,32.23
2018-11-26T07:20:17.556Z,30.10
2018-11-26T07:22:45.611Z,31.30
2018-11-26T07:25:14.602Z,33.90
2018-11-26T07:27:43.722Z,31.25
2018-11-26T07:30:15.899Z,29.10
2018-11-26T07:32:44.187Z,31.85
2018-11-26T07:35:12.681Z,34.27
2018-11-26T07:37:40.918Z,30.72
2018-11-26T07:40:13.666Z,32.58
2018-11-26T07:42:54.127Z,28.73
2018-11-26T07:45:22.221Z,31.93
2018-11-26T07:47:57.000Z,29.87
2018-11-26T07:50:25.057Z,30.25
2018-11-26T07:52:53.059Z,29.90
2018-11-26T07:55:21.782Z,29.37
2018-11-26T07:57:49.886Z,32.00
2018-11-26T08:00:19.319Z,28.02
2018-11-26T08:02:48.071Z,28.60
2018-11-26T08:05:17.139Z,28.90
2018-11-26T08:07:45.142Z,28.20
2018-11-26T08:10:14.379Z,26.55
2018-11-26T08:12:42.727Z,30.15
2018-11-26T08:15:14.050Z,23.27
2018-11-26T08:17:42.479Z,24.00
2018-11-26T08:20:10.670Z,27.52
2018-11-26T08:22:38.735Z,25.02
2018-11-26T08:25:11.334Z,19.80
2018-11-26T08:27:40.277Z,24.75
2018-11-26T08:30:18.087Z,22.95
2018-11-26T08:32:54.287Z,23.62
2018-11-26T08:35:22.303Z,23.87
2018-11-26T08:37:55.818Z,20.52
2018-11-26T08:40:28.722Z,22.40
2018-11-26T08:42:58.873Z,24.57
2018-11-26T08:45:32.775Z,22.98
2018-11-26T08:48:05.509Z,24.10
2018-11-26T08:50:33.812Z,21.90
2018-11-26T08:53:01.867Z,17.17
2018-11-26T08:55:29.942Z,22.67
2018-11-26T08:57:57.930Z,20.87
2018-11-26T09:00:25.930Z,21.70
2018-11-26T09:03:00.184Z,20.43
2018-11-26T09:05:33.892Z,20.90
2018-11-26T09:08:02.231Z,22.03
2018-11-26T09:10:30.232Z,15.93
2018-11-26T09:12:58.282Z,21.50
2018-11-26T09:15:26.580Z,20.97
2018-11-26T09:17:54.588Z,18.67
2018-11-26T09:20:22.595Z,21.12
2018-11-26T09:22:50.924Z,22.17
2018-11-26T09:25:18.922Z,24.83
2018-11-26T09:27:46.923Z,18.67
2018-11-26T09:30:15.227Z,20.53
2018-11-26T09:32:43.467Z,20.33
2018-11-26T09:35:14.732Z,23.47
2018-11-26T09:37:42.803Z,20.40
2018-11-26T09:40:16.522Z,19.27
2018-11-26T09:42:44.775Z,16.75
2018-11-26T09:45:14.885Z,19.60
2018-11-26T09:47:42.919Z,20.13
2018-11-26T09:50:17.037Z,17.35
2018-11-26T09:52:45.031Z,22.07
2018-11-26T09:55:14.770Z,19.85
2018-11-26T09:57:42.799Z,17.45
2018-11-26T10:00:13.192Z,12.90
2018-11-26T10:02:41.993Z,21.37
2018-11-26T10:05:12.636Z,19.40
2018-11-26T10:07:40.727Z,18.17
2018-11-26T10:10:10.147Z,21.30
2018-11-26T10:12:38.629Z,19.23
2018-11-26T10:15:10.851Z,14.85
2018-11-26T10:17:38.854Z,19.10
2018-11-26T10:20:07.995Z,20.47
2018-11-26T10:22:36.179Z,20.30
2018-11-26T10:25:06.059Z,18.73
2018-11-26T10:27:33.062Z,18.82
2018-11-26T10:30:00.930Z,16.27
2018-11-26T10:32:29.339Z,20.17
2018-11-26T10:34:57.350Z,23.00
2018-11-26T10:37:25.369Z,19.27
2018-11-26T10:39:53.423Z,19.70
2018-11-26T10:42:21.520Z,20.92
2018-11-26T10:44:49.527Z,18.07
2018-11-26T10:47:17.634Z,19.17
2018-11-26T10:49:45.687Z,19.23
2018-11-26T10:52:13.763Z,19.05
2018-11-26T10:54:41.791Z,17.57
2018-11-26T10:57:09.871Z,22.00
2018-11-26T10:59:38.574Z,15.80
2018-11-26T11:02:12.175Z,18.53
2018-11-26T11:04:47.340Z,16.93
2018-11-26T11:07:08.286Z,19.30
2018-11-26T11:09:36.420Z,18.02
2018-11-26T11:12:04.439Z,19.42
2018-11-26T11:14:32.439Z,19.20
2018-11-26T11:17:00.507Z,20.25
2018-11-26T11:19:28.677Z,15.97
2018-11-26T11:21:56.718Z,16.10
2018-11-26T11:24:24.812Z,18.57
2018-11-26T11:26:52.895Z,15.75
2018-11-26T11:29:21.000Z,15.83
2018-11-26T11:31:49.096Z,17.87
2018-11-26T11:34:17.180Z,16.45
2018-11-26T11:36:45.185Z,16.52
2018-11-26T11:39:13.351Z,16.73
2018-11-26T11:41:41.404Z,16.57
2018-11-26T11:44:09.404Z,16.73
2018-11-26T11:46:37.468Z,16.48
2018-11-26T11:49:05.800Z,14.87
2018-11-26T11:51:33.797Z,18.37
2018-11-26T11:54:01.956Z,16.30
2018-11-26T11:56:29.963Z,17.90
2018-11-26T11:58:58.037Z,16.52
2018-11-26T12:01:26.055Z,17.85
2018-11-26T12:03:54.078Z,17.85
2018-11-26T12:06:22.203Z,15.53
2018-11-26T12:08:50.248Z,17.10
2018-11-26T12:11:18.272Z,18.95
2018-11-26T12:13:46.336Z,17.32
2018-11-26T12:16:14.407Z,19.03
2018-11-26T12:18:42.413Z,16.73
2018-11-26T12:21:10.465Z,17.97
2018-11-26T12:23:38.471Z,13.85
2018-11-26T12:26:06.741Z,20.30
2018-11-26T12:28:34.836Z,19.67
2018-11-26T12:31:02.875Z,18.62
2018-11-26T12:33:30.991Z,17.57
2018-11-26T12:35:59.003Z,21.43
2018-11-26T12:38:27.008Z,19.80
2018-11-26T12:40:55.055Z,20.25
2018-11-26T12:43:23.052Z,20.20
2018-11-26T12:45:51.212Z,20.48
2018-11-26T12:48:19.478Z,21.42
2018-11-26T12:50:47.689Z,20.57
2018-11-26T12:53:15.736Z,19.97
2018-11-26T12:55:43.872Z,21.73
2018-11-26T12:58:11.957Z,21.63
2018-11-26T13:00:40.099Z,18.77
2018-11-26T13:03:10.804Z,20.97
2018-11-26T13:05:38.919Z,22.48
2018-11-26T13:08:07.348Z,18.48
2018-11-26T13:10:35.458Z,14.55
2018-11-26T13:13:04.780Z,17.60
2018-11-26T13:15:32.800Z,16.93
2018-11-26T13:18:00.932Z,16.50
2018-11-26T13:20:30.112Z,19.73
2018-11-26T13:22:58.152Z,19.23
2018-11-26T13:25:27.548Z,17.05
2018-11-26T13:27:56.735Z,21.40
2018-11-26T13:30:27.103Z,17.50
2018-11-26T13:32:56.389Z,18.95
2018-11-26T13:35:24.399Z,17.95
2018-11-26T13:37:52.573Z,17.90
2018-11-26T13:40:20.932Z,16.42
2018-11-26T13:42:49.336Z,15.08
2018-11-26T13:45:21.832Z,20.48
2018-11-26T13:47:49.908Z,10.15
2018-11-26T13:50:23.024Z,18.52
2018-11-26T13:52:50.376Z,14.80
2018-11-26T13:55:18.428Z,18.13
2018-11-26T13:57:46.642Z,18.25
2018-11-26T14:00:15.675Z,18.75
2018-11-26T14:02:43.941Z,19.15
2018-11-26T14:05:13.740Z,20.70
2018-11-26T14:07:41.912Z,18.07
2018-11-26T14:10:11.259Z,19.85
2018-11-26T14:12:39.592Z,19.05
2018-11-26T14:15:09.392Z,23.10
2018-11-26T14:17:37.403Z,17.90
2018-11-26T14:20:07.931Z,19.53
2018-11-26T14:22:35.929Z,18.83
2018-11-26T14:25:04.044Z,16.80
2018-11-26T14:27:32.198Z,18.83
2018-11-26T14:30:00.194Z,21.55
2018-11-26T14:32:28.284Z,21.25
2018-11-26T14:34:56.328Z,21.17
2018-11-26T14:37:24.387Z,21.57
2018-11-26T14:39:52.477Z,19.60
2018-11-26T14:42:20.521Z,17.75
2018-11-26T14:44:48.612Z,17.47
2018-11-26T14:47:16.773Z,13.38
2018-11-26T14:49:45.012Z,16.20
2018-11-26T14:52:13.120Z,14.38
2018-11-26T14:54:41.160Z,16.48
2018-11-26T14:57:09.176Z,17.50
2018-11-26T14:59:37.172Z,12.70
2018-11-26T15:02:05.441Z,15.50
2018-11-26T15:04:33.464Z,12.58
2018-11-26T15:07:01.468Z,15.30
2018-11-26T15:09:29.524Z,13.80
2018-11-26T15:11:57.535Z,13.98
2018-11-26T15:14:25.551Z,14.50
2018-11-26T15:16:53.620Z,14.60
2018-11-26T15:19:21.898Z,13.37
2018-11-26T15:21:49.675Z,14.35
2018-11-26T15:24:17.716Z,16.10
2018-11-26T15:26:45.768Z,14.95
2018-11-26T15:29:13.789Z,15.38
2018-11-26T15:31:41.851Z,13.85
2018-11-26T15:34:09.884Z,15.38
2018-11-26T15:36:37.970Z,14.40
2018-11-26T15:39:08.788Z,14.45
2018-11-26T15:41:37.544Z,14.97
2018-11-26T15:44:06.132Z,13.40
2018-11-26T15:46:34.442Z,14.93
2018-11-26T15:49:02.436Z,14.63
2018-11-26T15:51:30.503Z,17.80
2018-11-26T15:53:58.686Z,13.50
2018-11-26T15:56:26.706Z,16.10
2018-11-26T15:59:01.492Z,16.37
2018-11-26T16:01:29.492Z,16.03
2018-11-26T16:03:57.508Z,17.48
2018-11-26T16:06:25.551Z,18.00
2018-11-26T16:08:53.641Z,17.25
2018-11-26T16:11:21.724Z,13.72
2018-11-26T16:13:49.820Z,15.20
2018-11-26T16:16:17.823Z,13.30
2018-11-26T16:18:45.829Z,13.60
2018-11-26T16:21:13.959Z,15.20
2018-11-26T16:23:42.020Z,15.10
2018-11-26T16:26:10.024Z,16.40
2018-11-26T16:28:38.074Z,16.20
2018-11-26T16:31:06.075Z,13.60
2018-11-26T16:33:34.136Z,13.13
2018-11-26T16:36:02.145Z,13.38
2018-11-26T16:38:30.163Z,14.03
2018-11-26T16:40:58.222Z,15.97
2018-11-26T16:43:26.309Z,15.30
2018-11-26T16:45:54.320Z,16.17
2018-11-26T16:48:22.475Z,14.40
2018-11-26T16:50:50.491Z,15.70
2018-11-26T16:53:19.416Z,15.10
2018-11-26T16:55:46.938Z,15.53
2018-11-26T16:58:14.957Z,19.32
2018-11-26T17:00:42.974Z,14.85
2018-11-26T17:03:11.260Z,16.30
2018-11-26T17:05:40.804Z,18.25
2018-11-26T17:08:13.129Z,15.32
2018-11-26T17:10:41.500Z,26.33
2018-11-26T17:13:10.445Z,16.25
2018-11-26T17:15:38.582Z,16.00
2018-11-26T17:18:07.663Z,14.57
2018-11-26T17:20:36.508Z,15.25
2018-11-26T17:23:04.680Z,13.67
2018-11-26T17:25:32.772Z,12.67
2018-11-26T17:28:00.788Z,15.63
2018-11-26T17:30:28.953Z,11.45
2018-11-26T17:32:58.124Z,12.20
2018-11-26T17:35:26.324Z,13.50
2018-11-26T17:37:54.376Z,12.20
2018-11-26T17:40:23.334Z,12.03
2018-11-26T17:42:51.740Z,10.90
2018-11-26T17:45:20.601Z,10.87
2018-11-26T17:47:50.836Z,11.83
2018-11-26T17:50:24.215Z,10.97
2018-11-26T17:52:52.220Z,9.60
2018-11-26T17:55:20.244Z,11.47
2018-11-26T17:57:48.606Z,9.93
2018-11-26T18:00:28.112Z,10.10
2018-11-26T18:02:56.231Z,10.67
2018-11-26T18:05:26.788Z,9.00
2018-11-26T18:07:57.464Z,8.50
2018-11-26T18:10:25.518Z,9.80
2018-11-26T18:12:53.533Z,11.90
2018-11-26T18:15:21.575Z,12.17
2018-11-26T18:17:49.627Z,10.77
2018-11-26T18:20:19.078Z,10.40
2018-11-26T18:22:48.396Z,10.10
2018-11-26T18:25:17.276Z,8.53
2018-11-26T18:27:48.268Z,9.13
2018-11-26T18:30:18.108Z,10.67
2018-11-26T18:32:46.116Z,10.75
2018-11-26T18:35:14.435Z,9.77
2018-11-26T18:37:42.623Z,10.33
2018-11-26T18:40:13.377Z,10.30
2018-11-26T18:42:41.412Z,8.37
2018-11-26T18:45:11.508Z,9.93
2018-11-26T18:47:39.513Z,7.22
2018-11-26T18:50:17.423Z,10.68
2018-11-26T18:52:45.792Z,10.05
2018-11-26T18:55:13.792Z,11.40
2018-11-26T18:57:42.099Z,10.85
2018-11-26T19:00:12.798Z,10.33
2018-11-26T19:02:41.773Z,9.77
2018-11-26T19:05:09.639Z,10.43
2018-11-26T19:07:37.651Z,11.60
2018-11-26T19:10:11.148Z,11.22
2018-11-26T19:12:38.949Z,13.83
2018-11-26T19:15:10.107Z,11.70
2018-11-26T19:17:38.167Z,20.12
2018-11-26T19:20:09.044Z,17.27
2018-11-26T19:22:37.424Z,14.38
2018-11-26T19:25:07.989Z,12.95
2018-11-26T19:27:35.996Z,11.70
2018-11-26T19:30:04.916Z,11.00
2018-11-26T19:32:32.940Z,14.00
2018-11-26T19:35:00.968Z,12.45
2018-11-26T19:37:29.128Z,11.20
2018-11-26T19:39:57.119Z,11.95
2018-11-26T19:42:25.632Z,13.48
2018-11-26T19:44:53.945Z,14.70
2018-11-26T19:47:22.033Z,12.85
2018-11-26T19:49:50.144Z,13.15
2018-11-26T19:52:18.336Z,12.93
2018-11-26T19:54:46.387Z,12.10
2018-11-26T19:57:14.412Z,12.17
2018-11-26T19:59:42.496Z,12.58
2018-11-26T20:02:10.528Z,13.40
2018-11-26T20:04:44.328Z,14.90
2018-11-26T20:07:12.676Z,12.50
2018-11-26T20:09:41.916Z,13.80
2018-11-26T20:12:09.935Z,13.00
2018-11-26T20:14:38.079Z,12.47
2018-11-26T20:17:07.063Z,13.03
2018-11-26T20:19:35.360Z,13.08
2018-11-26T20:22:03.380Z,14.87
2018-11-26T20:24:31.392Z,13.48
2018-11-26T20:26:59.489Z,12.95
2018-11-26T20:29:27.525Z,13.53
2018-11-26T20:31:55.572Z,14.33
2018-11-26T20:34:23.672Z,13.65
2018-11-26T20:36:52.327Z,13.08
2018-11-26T20:39:20.399Z,15.58
2018-11-26T20:41:48.459Z,11.05
2018-11-26T20:44:16.569Z,15.90
2018-11-26T20:46:49.146Z,14.40
2018-11-26T20:49:12.776Z,13.43
2018-11-26T20:51:40.856Z,15.85
2018-11-26T20:54:08.852Z,13.98
2018-11-26T20:56:37.224Z,16.65
2018-11-26T20:59:05.833Z,18.57
2018-11-26T21:01:34.860Z,18.65
2018-11-26T21:04:07.967Z,15.10
2018-11-26T21:09:46.077Z,21.12
2018-11-26T21:15:14.539Z,20.92
2018-11-26T21:17:43.890Z,17.65
2018-11-26T21:20:15.137Z,18.30
2018-11-26T21:22:43.403Z,15.18
2018-11-26T21:25:13.122Z,15.53
2018-11-26T21:27:41.866Z,17.70
2018-11-26T21:30:12.791Z,17.75
2018-11-26T21:32:41.146Z,13.50
2018-11-26T21:35:12.209Z,14.80
2018-11-26T21:37:49.897Z,16.55
2018-11-26T21:40:24.778Z,15.88
2018-11-26T21:43:00.398Z,11.12
2018-11-26T21:46:04.587Z,17.23
2018-11-26T21:48:45.728Z,13.25
2018-11-26T21:51:27.470Z,13.65
2018-11-26T21:54:00.658Z,15.40
2018-11-26T21:56:30.929Z,15.38
2018-11-26T21:59:07.651Z,16.12
2018-11-26T22:02:16.474Z,16.45
2018-11-26T22:04:49.686Z,16.45
2018-11-26T22:10:37.635Z,15.00
2018-11-26T22:13:06.892Z,14.75
2018-11-26T22:15:34.904Z,19.37
2018-11-26T22:18:02.986Z,16.82
2018-11-26T22:20:31.776Z,17.07
2018-11-26T22:22:59.897Z,17.07
2018-11-26T22:25:27.924Z,17.05
2018-11-26T22:27:55.999Z,18.52
2018-11-26T22:30:28.509Z,17.00
2018-11-26T22:32:56.600Z,18.30
2018-11-26T22:35:24.708Z,16.23
2018-11-26T22:37:53.096Z,15.88
2018-11-26T22:40:22.284Z,15.43
2018-11-26T22:42:50.341Z,16.70
2018-11-26T22:45:24.821Z,16.10
2018-11-26T22:47:57.817Z,18.80
2018-11-26T22:50:25.989Z,16.30
2018-11-26T22:52:54.078Z,16.32
2018-11-26T22:55:22.596Z,14.25
2018-11-26T22:57:50.304Z,15.50
2018-11-26T23:00:38.928Z,16.07
2018-11-26T23:03:07.012Z,15.35
2018-11-26T23:05:35.102Z,15.95
2018-11-26T23:08:03.336Z,14.93
2018-11-26T23:10:31.416Z,16.52
2018-11-26T23:12:59.453Z,15.38
2018-11-26T23:15:27.532Z,15.78
2018-11-26T23:17:55.621Z,15.68
2018-11-26T23:20:23.722Z,16.25
2018-11-26T23:22:51.826Z,16.35
2018-11-26T23:25:20.501Z,17.45
2018-11-26T23:27:48.539Z,15.98
2018-11-26T23:30:19.298Z,15.00
2018-11-26T23:32:49.534Z,17.62
2018-11-26T23:35:17.760Z,14.70
2018-11-26T23:37:45.788Z,15.93
2018-11-26T23:40:14.082Z,14.85
2018-11-26T23:42:42.486Z,13.90
2018-11-26T23:45:12.005Z,14.90
2018-11-26T23:47:40.038Z,17.07
2018-11-26T23:50:10.233Z,17.05
2018-11-26T23:52:39.413Z,15.70
2018-11-26T23:55:13.893Z,16.87
2018-11-26T23:57:41.937Z,16.10
